WEATHER DATA

YESTERDAY
Time Temp. Dewp. Hum. Bar.
00:07 11.3 7.2 76 1024
00:17 11 6.9 76 1024
00:27 10.8 6.9 77 1024
00:38 10.6 6.9 78 1023.8
00:47 10.5 6.8 78 1023.9
00:57 10.4 6.7 78 1023.9
01:08 10.3 6.8 79 1023.8
01:18 10.2 6.7 79 1023.8
01:28 10 6.5 79 1023.8
01:38 9.9 6.6 80 1023.8
01:48 9.9 6.6 80 1023.9
01:58 9.8 6.5 80 1023.9
02:08 9.7 6.4 80 1024
02:19 9.6 6.3 80 1023.7
02:28 9.4 6.1 80 1023.7
02:38 9.2 6.1 81 1023.7
02:48 9.1 6 81 1023.7
02:59 9 5.9 81 1023.7
03:09 8.9 6 82 1023.7
03:18 8.9 6 82 1023.7
03:29 8.9 6.2 83 1023.6
03:39 8.9 6.2 83 1023.6
03:49 8.9 6.2 83 1023.5
03:58 8.9 6.2 83 1023.6
04:09 8.8 6.1 83 1023.8
04:19 8.7 6 83 1023.8
04:29 8.7 6 83 1023.8
04:39 8.7 6 83 1023.9
04:49 8.6 5.9 83 1024
04:59 8.4 5.7 83 1024.1
05:09 8.3 5.8 84 1024
05:20 8.3 5.9 85 1024
05:30 8.3 5.9 85 1024
05:40 8.3 5.9 85 1024.1
05:50 8.6 6.4 86 1024.1
06:00 9.5 7.4 87 1024.1
06:15 9.9 7.5 85 1024.2
06:25 9.9 7.3 84 1024.2
06:36 10 7.4 84 1024.3
06:45 10.2 7.8 85 1024.4
06:55 10.4 8 85 1024.4
07:06 10.9 8.7 86 1024.4
07:16 11.6 9 84 1024.4
07:25 12.4 9.2 81 1024.6
07:35 13 9.3 78 1024.5
07:46 13.7 9.4 75 1024.5
07:56 14.3 9.5 73 1024.6
08:06 15.6 10.6 72 1024.6
08:17 16.9 11 68 1024.8
08:26 17.9 11.7 67 1024.8
08:36 18.4 11.7 65 1024.9
08:46 18.9 11.9 64 1024.7
08:57 19.1 12.4 65 1025
09:07 19.6 11.9 61 1025
09:16 19.9 11.4 58 1024.9
09:27 20 11.5 58 1024.9
09:37 20.3 11.2 56 1024.8
09:47 20.5 11.7 57 1024.8
09:57 20.9 12.1 57 1024.8
10:07 20.6 11.5 56 1024.7
10:17 20.3 11.8 58 1024.8
10:27 20 11.5 58 1024.8
10:37 19.6 11.1 58 1024.8
10:48 19.5 11 58 1024.9
10:57 19.6 10.9 57 1024.8
11:07 19.6 10.9 57 1024.8
11:18 19.5 11 58 1024.9
11:28 20.3 11 55 1024.9
11:38 21 10.8 52 1024.8
11:48 21.6 10.7 50 1024.6
11:58 22 11.1 50 1024.6
12:08 22.4 11.2 49 1024.6
12:18 22.7 10.8 47 1024.5
12:29 22.9 10.7 46 1024.5
12:39 23.2 11.3 47 1024.5
12:48 22.5 10.6 47 1024.4
12:58 21.8 10.3 48 1024.2
13:09 21.4 10.9 51 1024.3
13:19 21 10.5 51 1024.2
13:29 20.8 11.2 54 1024.3
13:39 21.5 10.9 51 1024.2
13:49 22 10.5 48 1024.3
13:59 22.3 12 52 1024.2
14:09 22.8 11.8 50 1024.2
14:20 23.1 11.5 48 1024
14:29 23.5 11.5 47 1024
14:39 23.9 11.9 47 1023.8
14:50 24.3 12.3 47 1023.8
15:00 24.5 10.8 42 1024
15:10 24.6 10.8 42 1023.8
15:19 24.7 11.3 43 1023.9
15:30 24.5 11.5 44 1024.4
15:40 24.5 11.1 43 1023.9
15:50 24 11 44 1024.4
16:00 24.1 10.4 42 1023.6
16:10 23.5 10.6 44 1024.3
16:20 23.7 10 42 1024.1
16:30 23.4 10.1 43 1024.1
16:41 23 10.4 45 1023.5
16:51 22.8 10.3 45 1023.4
17:01 22.5 10 45 1023.2
17:10 22.4 9.9 45 1023.6
17:21 22.9 10.7 46 1023.8
17:31 23.7 11.4 46 1023.8
17:41 23.9 10.9 44 1023.7
17:51 24.2 10.8 43 1023.6
18:01 23.8 11.5 46 1023
18:11 23.3 11.7 48 1022.7
18:21 22.3 11.1 49 1022.6
18:32 21.8 10.9 50 1022.8
18:42 21.5 10.7 50 1022.5
18:51 21.1 10.6 51 1022.5
19:02 20.7 10.2 51 1022.4
19:12 20.5 10.3 52 1022.4
19:22 20.3 10.7 54 1022.3
19:32 20.1 10.5 54 1022.3
19:42 19.8 10.2 54 1022.3
19:52 19.5 10 54 1022.3
20:02 19.2 10 55 1022.4
20:12 18.9 9.7 55 1022.4
20:23 18.6 9.7 56 1022.4
20:32 18.4 9.5 56 1022.5
20:42 18 9.4 57 1022.7
20:53 17.7 9.3 58 1022.7
21:03 17.4 9.3 59 1022.6
21:13 17.1 9 59 1022.7
21:23 16.8 9 60 1022.9
21:33 16.5 8.7 60 1022.9
21:43 16.2 8.7 61 1022.9
21:53 15.9 8.6 62 1023
22:04 15.6 8.6 63 1023
22:13 15.4 8.6 64 1023.1
22:23 15.1 8.6 65 1022.9
22:33 14.8 8.3 65 1022.9
22:44 14.6 8.3 66 1022.8
22:54 14.5 8.2 66 1022.8
23:03 14.5 8 65 1022.7
23:14 14.5 8 65 1022.8
23:24 14.5 8 65 1022.7
23:34 14.4 7.9 65 1022.5
23:44 14.3 7.8 65 1022.7
23:55 14.1 7.6 65 1022.7

DAY STATISTIC

2020-07-12
TEMPERATURE
AVERAGE
16.8
HIGH
24.7
15:19
LOW
8.3
05:09
PRESSURE
AVERAGE
1023.8
HIGH
1025.0
08:57
LOW
1022.3
19:22
DEWPOINT
AVERAGE
9.2
HIGH
12.4
08:57
LOW
5.7
04:59
HUMIDITY
AVERAGE
63
HIGH
87
06:00
LOW
42
15:00
TEMPERATURE (°C)
LOW
8.3
HIGH
24.7
AVERAGE
16.8
PRESSURE (hpa)
LOW
1022.3
HIGH
1025.0
AVERAGE
1023.8
DEVICE